sensor_id;sensor_type;location;lat;lon;timestamp;P1;durP1;ratioP1;P2;durP2;ratioP2
37609;SDS011;23457;51.966;8.230;2023-07-13T00:01:48;6.05;;;3.00;;
37609;SDS011;23457;51.966;8.230;2023-07-13T00:04:20;7.07;;;2.78;;
37609;SDS011;23457;51.966;8.230;2023-07-13T00:06:49;6.40;;;2.85;;
37609;SDS011;23457;51.966;8.230;2023-07-13T00:09:17;5.53;;;2.83;;
37609;SDS011;23457;51.966;8.230;2023-07-13T00:11:45;8.23;;;3.00;;
37609;SDS011;23457;51.966;8.230;2023-07-13T00:14:14;6.88;;;2.90;;
37609;SDS011;23457;51.966;8.230;2023-07-13T00:16:42;9.30;;;2.97;;
37609;SDS011;23457;51.966;8.230;2023-07-13T00:19:10;8.73;;;2.85;;
37609;SDS011;23457;51.966;8.230;2023-07-13T00:21:38;16.52;;;2.40;;
37609;SDS011;23457;51.966;8.230;2023-07-13T00:24:06;5.88;;;2.50;;
37609;SDS011;23457;51.966;8.230;2023-07-13T00:26:34;9.45;;;2.90;;
37609;SDS011;23457;51.966;8.230;2023-07-13T00:29:01;7.47;;;2.58;;
37609;SDS011;23457;51.966;8.230;2023-07-13T00:31:28;6.60;;;3.05;;
37609;SDS011;23457;51.966;8.230;2023-07-13T00:33:55;7.05;;;2.92;;
37609;SDS011;23457;51.966;8.230;2023-07-13T00:36:22;6.88;;;2.80;;
37609;SDS011;23457;51.966;8.230;2023-07-13T00:38:49;5.90;;;2.80;;
37609;SDS011;23457;51.966;8.230;2023-07-13T00:41:15;5.60;;;2.80;;
37609;SDS011;23457;51.966;8.230;2023-07-13T00:43:42;11.40;;;3.40;;
37609;SDS011;23457;51.966;8.230;2023-07-13T00:46:31;11.40;;;3.20;;
37609;SDS011;23457;51.966;8.230;2023-07-13T00:48:59;7.07;;;2.80;;
37609;SDS011;23457;51.966;8.230;2023-07-13T00:51:34;4.65;;;2.88;;
37609;SDS011;23457;51.966;8.230;2023-07-13T00:54:06;9.10;;;3.20;;
37609;SDS011;23457;51.966;8.230;2023-07-13T00:56:38;7.13;;;3.00;;
37609;SDS011;23457;51.966;8.230;2023-07-13T00:59:07;6.45;;;3.03;;
37609;SDS011;23457;51.966;8.230;2023-07-13T01:01:36;8.65;;;2.60;;
37609;SDS011;23457;51.966;8.230;2023-07-13T01:04:03;7.70;;;2.70;;
37609;SDS011;23457;51.966;8.230;2023-07-13T01:06:30;8.43;;;2.67;;
37609;SDS011;23457;51.966;8.230;2023-07-13T01:08:58;8.82;;;4.20;;
37609;SDS011;23457;51.966;8.230;2023-07-13T01:11:26;6.68;;;2.55;;
37609;SDS011;23457;51.966;8.230;2023-07-13T01:13:53;6.28;;;2.78;;
37609;SDS011;23457;51.966;8.230;2023-07-13T01:16:24;6.20;;;2.72;;
37609;SDS011;23457;51.966;8.230;2023-07-13T01:18:54;6.85;;;2.47;;
37609;SDS011;23457;51.966;8.230;2023-07-13T01:21:25;9.60;;;3.03;;
37609;SDS011;23457;51.966;8.230;2023-07-13T01:23:52;8.15;;;3.15;;
37609;SDS011;23457;51.966;8.230;2023-07-13T01:26:20;7.10;;;2.95;;
37609;SDS011;23457;51.966;8.230;2023-07-13T01:28:47;7.38;;;3.00;;
37609;SDS011;23457;51.966;8.230;2023-07-13T01:31:14;9.68;;;3.35;;
37609;SDS011;23457;51.966;8.230;2023-07-13T01:33:41;6.85;;;2.80;;
37609;SDS011;23457;51.966;8.230;2023-07-13T01:36:08;7.95;;;2.90;;
37609;SDS011;23457;51.966;8.230;2023-07-13T01:38:36;7.68;;;2.60;;
37609;SDS011;23457;51.966;8.230;2023-07-13T01:41:03;6.40;;;2.53;;
37609;SDS011;23457;51.966;8.230;2023-07-13T01:43:30;7.22;;;3.17;;
37609;SDS011;23457;51.966;8.230;2023-07-13T01:45:58;10.07;;;3.50;;
37609;SDS011;23457;51.966;8.230;2023-07-13T01:48:45;7.07;;;3.15;;
37609;SDS011;23457;51.966;8.230;2023-07-13T01:51:11;7.45;;;3.65;;
37609;SDS011;23457;51.966;8.230;2023-07-13T01:53:39;9.07;;;3.38;;
37609;SDS011;23457;51.966;8.230;2023-07-13T01:56:07;7.93;;;3.88;;
37609;SDS011;23457;51.966;8.230;2023-07-13T01:58:34;10.68;;;3.53;;
37609;SDS011;23457;51.966;8.230;2023-07-13T02:01:00;6.68;;;3.05;;
37609;SDS011;23457;51.966;8.230;2023-07-13T02:03:27;9.45;;;2.60;;
37609;SDS011;23457;51.966;8.230;2023-07-13T02:05:56;4.28;;;2.78;;
37609;SDS011;23457;51.966;8.230;2023-07-13T02:08:22;8.50;;;3.00;;
37609;SDS011;23457;51.966;8.230;2023-07-13T02:10:49;11.30;;;3.33;;
37609;SDS011;23457;51.966;8.230;2023-07-13T02:13:15;11.95;;;3.42;;
37609;SDS011;23457;51.966;8.230;2023-07-13T02:15:42;16.83;;;3.53;;
37609;SDS011;23457;51.966;8.230;2023-07-13T02:18:09;7.07;;;2.90;;
37609;SDS011;23457;51.966;8.230;2023-07-13T02:20:35;9.85;;;3.55;;
37609;SDS011;23457;51.966;8.230;2023-07-13T02:23:02;10.82;;;3.13;;
37609;SDS011;23457;51.966;8.230;2023-07-13T02:25:29;8.57;;;3.13;;
37609;SDS011;23457;51.966;8.230;2023-07-13T02:27:56;6.05;;;3.25;;
37609;SDS011;23457;51.966;8.230;2023-07-13T02:30:23;7.13;;;3.00;;
37609;SDS011;23457;51.966;8.230;2023-07-13T02:32:53;8.75;;;3.40;;
37609;SDS011;23457;51.966;8.230;2023-07-13T02:35:19;9.05;;;3.50;;
37609;SDS011;23457;51.966;8.230;2023-07-13T02:37:46;11.23;;;3.72;;
37609;SDS011;23457;51.966;8.230;2023-07-13T02:40:13;8.57;;;3.58;;
37609;SDS011;23457;51.966;8.230;2023-07-13T02:42:40;11.43;;;3.78;;
37609;SDS011;23457;51.966;8.230;2023-07-13T02:45:07;6.57;;;2.72;;
37609;SDS011;23457;51.966;8.230;2023-07-13T02:47:35;8.00;;;3.35;;
37609;SDS011;23457;51.966;8.230;2023-07-13T02:50:02;12.90;;;3.80;;
37609;SDS011;23457;51.966;8.230;2023-07-13T02:52:30;9.48;;;2.70;;
37609;SDS011;23457;51.966;8.230;2023-07-13T02:54:57;8.32;;;3.13;;
37609;SDS011;23457;51.966;8.230;2023-07-13T02:57:24;9.27;;;3.35;;
37609;SDS011;23457;51.966;8.230;2023-07-13T02:59:50;13.00;;;3.92;;
37609;SDS011;23457;51.966;8.230;2023-07-13T03:02:17;7.50;;;3.30;;
37609;SDS011;23457;51.966;8.230;2023-07-13T03:04:44;8.80;;;3.85;;
37609;SDS011;23457;51.966;8.230;2023-07-13T03:07:11;8.65;;;3.35;;
37609;SDS011;23457;51.966;8.230;2023-07-13T03:09:38;6.38;;;3.10;;
37609;SDS011;23457;51.966;8.230;2023-07-13T03:12:06;5.90;;;2.90;;
37609;SDS011;23457;51.966;8.230;2023-07-13T03:14:34;11.38;;;3.22;;
37609;SDS011;23457;51.966;8.230;2023-07-13T03:17:04;8.73;;;3.22;;
37609;SDS011;23457;51.966;8.230;2023-07-13T03:19:33;11.15;;;3.65;;
37609;SDS011;23457;51.966;8.230;2023-07-13T03:22:01;8.85;;;3.45;;
37609;SDS011;23457;51.966;8.230;2023-07-13T03:24:28;10.27;;;3.25;;
37609;SDS011;23457;51.966;8.230;2023-07-13T03:26:56;5.95;;;3.05;;
37609;SDS011;23457;51.966;8.230;2023-07-13T03:29:23;7.82;;;3.50;;
37609;SDS011;23457;51.966;8.230;2023-07-13T03:31:51;7.93;;;3.30;;
37609;SDS011;23457;51.966;8.230;2023-07-13T03:34:18;9.68;;;3.35;;
37609;SDS011;23457;51.966;8.230;2023-07-13T03:36:44;8.77;;;3.20;;
37609;SDS011;23457;51.966;8.230;2023-07-13T03:39:12;7.05;;;3.50;;
37609;SDS011;23457;51.966;8.230;2023-07-13T03:41:52;9.90;;;3.50;;
37609;SDS011;23457;51.966;8.230;2023-07-13T03:44:19;9.98;;;3.88;;
37609;SDS011;23457;51.966;8.230;2023-07-13T03:46:50;8.52;;;3.60;;
37609;SDS011;23457;51.966;8.230;2023-07-13T03:49:17;7.25;;;3.67;;
37609;SDS011;23457;51.966;8.230;2023-07-13T03:51:44;11.18;;;4.30;;
37609;SDS011;23457;51.966;8.230;2023-07-13T03:54:10;14.30;;;3.80;;
37609;SDS011;23457;51.966;8.230;2023-07-13T03:56:37;9.45;;;3.90;;
37609;SDS011;23457;51.966;8.230;2023-07-13T03:59:06;11.68;;;4.03;;
37609;SDS011;23457;51.966;8.230;2023-07-13T04:01:33;11.45;;;4.13;;
37609;SDS011;23457;51.966;8.230;2023-07-13T04:04:00;10.32;;;2.95;;
37609;SDS011;23457;51.966;8.230;2023-07-13T04:06:30;7.10;;;3.30;;
37609;SDS011;23457;51.966;8.230;2023-07-13T04:08:58;7.90;;;3.53;;
37609;SDS011;23457;51.966;8.230;2023-07-13T04:11:28;12.82;;;3.20;;
37609;SDS011;23457;51.966;8.230;2023-07-13T04:13:58;10.15;;;3.40;;
37609;SDS011;23457;51.966;8.230;2023-07-13T04:16:26;4.68;;;2.97;;
37609;SDS011;23457;51.966;8.230;2023-07-13T04:18:54;13.80;;;3.22;;
37609;SDS011;23457;51.966;8.230;2023-07-13T04:21:23;9.70;;;3.22;;
37609;SDS011;23457;51.966;8.230;2023-07-13T04:23:50;11.55;;;3.05;;
37609;SDS011;23457;51.966;8.230;2023-07-13T04:26:17;9.15;;;2.95;;
37609;SDS011;23457;51.966;8.230;2023-07-13T04:28:43;13.40;;;3.20;;
37609;SDS011;23457;51.966;8.230;2023-07-13T04:31:10;8.15;;;3.25;;
37609;SDS011;23457;51.966;8.230;2023-07-13T04:33:37;6.43;;;2.50;;
37609;SDS011;23457;51.966;8.230;2023-07-13T04:36:04;10.20;;;2.65;;
37609;SDS011;23457;51.966;8.230;2023-07-13T04:38:31;9.95;;;2.90;;
37609;SDS011;23457;51.966;8.230;2023-07-13T04:41:00;6.35;;;2.70;;
37609;SDS011;23457;51.966;8.230;2023-07-13T04:43:28;5.97;;;2.63;;
37609;SDS011;23457;51.966;8.230;2023-07-13T04:45:56;7.30;;;2.40;;
37609;SDS011;23457;51.966;8.230;2023-07-13T04:48:23;8.93;;;2.63;;
37609;SDS011;23457;51.966;8.230;2023-07-13T04:50:56;9.70;;;3.05;;
37609;SDS011;23457;51.966;8.230;2023-07-13T04:53:24;4.68;;;2.40;;
37609;SDS011;23457;51.966;8.230;2023-07-13T04:55:51;10.02;;;2.25;;
37609;SDS011;23457;51.966;8.230;2023-07-13T04:58:18;5.97;;;2.03;;
37609;SDS011;23457;51.966;8.230;2023-07-13T05:00:45;7.88;;;2.63;;
37609;SDS011;23457;51.966;8.230;2023-07-13T05:03:12;6.47;;;2.40;;
37609;SDS011;23457;51.966;8.230;2023-07-13T05:05:38;9.38;;;2.63;;
37609;SDS011;23457;51.966;8.230;2023-07-13T05:08:05;6.65;;;2.40;;
37609;SDS011;23457;51.966;8.230;2023-07-13T05:10:33;8.27;;;2.67;;
37609;SDS011;23457;51.966;8.230;2023-07-13T05:13:01;8.25;;;2.05;;
37609;SDS011;23457;51.966;8.230;2023-07-13T05:15:27;10.32;;;2.60;;
37609;SDS011;23457;51.966;8.230;2023-07-13T05:17:54;7.22;;;2.35;;
37609;SDS011;23457;51.966;8.230;2023-07-13T05:20:21;7.20;;;1.90;;
37609;SDS011;23457;51.966;8.230;2023-07-13T05:22:48;10.00;;;2.72;;
37609;SDS011;23457;51.966;8.230;2023-07-13T05:25:14;9.48;;;2.35;;
37609;SDS011;23457;51.966;8.230;2023-07-13T05:27:41;9.60;;;2.00;;
37609;SDS011;23457;51.966;8.230;2023-07-13T05:30:08;6.45;;;2.10;;
37609;SDS011;23457;51.966;8.230;2023-07-13T05:32:37;10.00;;;1.95;;
37609;SDS011;23457;51.966;8.230;2023-07-13T05:35:04;8.82;;;2.03;;
37609;SDS011;23457;51.966;8.230;2023-07-13T05:37:31;8.18;;;2.00;;
37609;SDS011;23457;51.966;8.230;2023-07-13T05:39:58;9.35;;;2.20;;
37609;SDS011;23457;51.966;8.230;2023-07-13T05:42:25;11.68;;;2.35;;
37609;SDS011;23457;51.966;8.230;2023-07-13T05:44:52;8.65;;;2.35;;
37609;SDS011;23457;51.966;8.230;2023-07-13T05:47:18;12.10;;;2.30;;
37609;SDS011;23457;51.966;8.230;2023-07-13T05:49:45;7.68;;;1.80;;
37609;SDS011;23457;51.966;8.230;2023-07-13T05:52:12;11.15;;;2.42;;
37609;SDS011;23457;51.966;8.230;2023-07-13T05:54:38;6.47;;;2.00;;
37609;SDS011;23457;51.966;8.230;2023-07-13T05:57:05;8.95;;;2.35;;
37609;SDS011;23457;51.966;8.230;2023-07-13T05:59:32;8.40;;;2.00;;
37609;SDS011;23457;51.966;8.230;2023-07-13T06:01:58;8.10;;;2.45;;
37609;SDS011;23457;51.966;8.230;2023-07-13T06:04:25;7.50;;;2.20;;
37609;SDS011;23457;51.966;8.230;2023-07-13T06:06:52;8.55;;;2.58;;
37609;SDS011;23457;51.966;8.230;2023-07-13T06:09:19;12.82;;;2.47;;
37609;SDS011;23457;51.966;8.230;2023-07-13T06:11:46;8.27;;;2.15;;
37609;SDS011;23457;51.966;8.230;2023-07-13T06:14:12;10.70;;;2.63;;
37609;SDS011;23457;51.966;8.230;2023-07-13T06:16:39;11.20;;;2.83;;
37609;SDS011;23457;51.966;8.230;2023-07-13T06:19:07;12.77;;;2.90;;
37609;SDS011;23457;51.966;8.230;2023-07-13T06:21:34;8.70;;;2.65;;
37609;SDS011;23457;51.966;8.230;2023-07-13T06:24:00;12.45;;;3.13;;
37609;SDS011;23457;51.966;8.230;2023-07-13T06:26:27;13.93;;;3.40;;
37609;SDS011;23457;51.966;8.230;2023-07-13T06:28:54;11.93;;;2.97;;
37609;SDS011;23457;51.966;8.230;2023-07-13T06:31:21;11.27;;;2.63;;
37609;SDS011;23457;51.966;8.230;2023-07-13T06:33:48;13.60;;;3.35;;
37609;SDS011;23457;51.966;8.230;2023-07-13T06:36:14;14.63;;;3.88;;
37609;SDS011;23457;51.966;8.230;2023-07-13T06:38:41;13.98;;;3.22;;
37609;SDS011;23457;51.966;8.230;2023-07-13T06:41:08;11.20;;;3.38;;
37609;SDS011;23457;51.966;8.230;2023-07-13T06:43:36;20.75;;;3.42;;
37609;SDS011;23457;51.966;8.230;2023-07-13T06:46:02;9.60;;;3.30;;
37609;SDS011;23457;51.966;8.230;2023-07-13T06:48:29;13.30;;;5.00;;
37609;SDS011;23457;51.966;8.230;2023-07-13T06:50:57;12.57;;;3.60;;
37609;SDS011;23457;51.966;8.230;2023-07-13T06:53:24;15.40;;;3.97;;
37609;SDS011;23457;51.966;8.230;2023-07-13T06:55:50;10.50;;;3.42;;
37609;SDS011;23457;51.966;8.230;2023-07-13T06:58:18;11.55;;;3.30;;
37609;SDS011;23457;51.966;8.230;2023-07-13T07:00:45;11.10;;;3.55;;
37609;SDS011;23457;51.966;8.230;2023-07-13T07:03:13;14.57;;;4.18;;
37609;SDS011;23457;51.966;8.230;2023-07-13T07:05:40;12.98;;;4.00;;
37609;SDS011;23457;51.966;8.230;2023-07-13T07:08:08;15.30;;;3.53;;
37609;SDS011;23457;51.966;8.230;2023-07-13T07:10:35;12.43;;;3.55;;
37609;SDS011;23457;51.966;8.230;2023-07-13T07:13:03;15.93;;;3.95;;
37609;SDS011;23457;51.966;8.230;2023-07-13T07:15:30;11.32;;;3.75;;
37609;SDS011;23457;51.966;8.230;2023-07-13T07:17:57;15.82;;;3.92;;
37609;SDS011;23457;51.966;8.230;2023-07-13T07:20:23;15.70;;;3.83;;
37609;SDS011;23457;51.966;8.230;2023-07-13T07:22:50;12.95;;;3.60;;
37609;SDS011;23457;51.966;8.230;2023-07-13T07:25:17;15.95;;;4.13;;
37609;SDS011;23457;51.966;8.230;2023-07-13T07:27:44;13.43;;;3.42;;
37609;SDS011;23457;51.966;8.230;2023-07-13T07:30:14;14.95;;;3.60;;
37609;SDS011;23457;51.966;8.230;2023-07-13T07:32:44;14.10;;;3.25;;
37609;SDS011;23457;51.966;8.230;2023-07-13T07:35:14;11.48;;;3.00;;
37609;SDS011;23457;51.966;8.230;2023-07-13T07:37:41;13.63;;;3.53;;
37609;SDS011;23457;51.966;8.230;2023-07-13T07:42:40;9.63;;;3.20;;
37609;SDS011;23457;51.966;8.230;2023-07-13T07:45:07;11.30;;;3.30;;
37609;SDS011;23457;51.966;8.230;2023-07-13T07:47:34;14.00;;;3.78;;
37609;SDS011;23457;51.966;8.230;2023-07-13T07:50:01;12.88;;;2.80;;
37609;SDS011;23457;51.966;8.230;2023-07-13T07:52:27;9.82;;;2.78;;
37609;SDS011;23457;51.966;8.230;2023-07-13T07:54:54;14.25;;;3.53;;
37609;SDS011;23457;51.966;8.230;2023-07-13T07:57:23;10.23;;;3.42;;
37609;SDS011;23457;51.966;8.230;2023-07-13T08:04:53;11.65;;;3.28;;
37609;SDS011;23457;51.966;8.230;2023-07-13T08:07:22;11.98;;;3.47;;
37609;SDS011;23457;51.966;8.230;2023-07-13T08:09:53;12.90;;;3.38;;
37609;SDS011;23457;51.966;8.230;2023-07-13T08:12:20;13.50;;;3.45;;
37609;SDS011;23457;51.966;8.230;2023-07-13T08:14:50;13.40;;;2.97;;
37609;SDS011;23457;51.966;8.230;2023-07-13T08:17:20;12.32;;;3.50;;
37609;SDS011;23457;51.966;8.230;2023-07-13T08:19:47;15.05;;;4.05;;
37609;SDS011;23457;51.966;8.230;2023-07-13T08:22:14;12.40;;;3.28;;
37609;SDS011;23457;51.966;8.230;2023-07-13T08:24:40;11.63;;;4.03;;
37609;SDS011;23457;51.966;8.230;2023-07-13T08:27:09;14.43;;;3.50;;
37609;SDS011;23457;51.966;8.230;2023-07-13T08:29:38;14.13;;;3.60;;
37609;SDS011;23457;51.966;8.230;2023-07-13T08:32:05;10.85;;;3.42;;
37609;SDS011;23457;51.966;8.230;2023-07-13T08:34:36;12.00;;;3.67;;
37609;SDS011;23457;51.966;8.230;2023-07-13T08:37:02;10.93;;;3.05;;
37609;SDS011;23457;51.966;8.230;2023-07-13T08:39:30;9.23;;;3.08;;
37609;SDS011;23457;51.966;8.230;2023-07-13T08:42:01;8.98;;;3.00;;
37609;SDS011;23457;51.966;8.230;2023-07-13T08:44:37;8.38;;;3.45;;
37609;SDS011;23457;51.966;8.230;2023-07-13T08:47:23;7.50;;;2.88;;
37609;SDS011;23457;51.966;8.230;2023-07-13T08:49:50;11.50;;;3.30;;
37609;SDS011;23457;51.966;8.230;2023-07-13T08:52:31;11.75;;;3.72;;
37609;SDS011;23457;51.966;8.230;2023-07-13T08:55:06;10.20;;;3.50;;
37609;SDS011;23457;51.966;8.230;2023-07-13T08:57:39;11.60;;;3.47;;
37609;SDS011;23457;51.966;8.230;2023-07-13T09:00:09;8.07;;;3.50;;
37609;SDS011;23457;51.966;8.230;2023-07-13T09:05:31;17.23;;;3.72;;
37609;SDS011;23457;51.966;8.230;2023-07-13T09:11:14;7.35;;;2.97;;
37609;SDS011;23457;51.966;8.230;2023-07-13T09:13:51;12.45;;;3.50;;
37609;SDS011;23457;51.966;8.230;2023-07-13T09:16:38;10.38;;;3.40;;
37609;SDS011;23457;51.966;8.230;2023-07-13T09:19:07;7.43;;;3.03;;
37609;SDS011;23457;51.966;8.230;2023-07-13T09:21:42;9.27;;;2.55;;
37609;SDS011;23457;51.966;8.230;2023-07-13T09:27:21;11.73;;;2.67;;
37609;SDS011;23457;51.966;8.230;2023-07-13T09:29:52;6.93;;;2.40;;
37609;SDS011;23457;51.966;8.230;2023-07-13T09:32:24;8.45;;;2.70;;
37609;SDS011;23457;51.966;8.230;2023-07-13T09:34:53;8.77;;;2.67;;
37609;SDS011;23457;51.966;8.230;2023-07-13T09:37:21;9.10;;;2.47;;
37609;SDS011;23457;51.966;8.230;2023-07-13T09:39:54;7.28;;;2.80;;
37609;SDS011;23457;51.966;8.230;2023-07-13T09:42:24;7.40;;;2.53;;
37609;SDS011;23457;51.966;8.230;2023-07-13T09:44:53;7.20;;;2.47;;
37609;SDS011;23457;51.966;8.230;2023-07-13T09:47:31;9.65;;;2.50;;
37609;SDS011;23457;51.966;8.230;2023-07-13T09:50:00;8.23;;;3.00;;
37609;SDS011;23457;51.966;8.230;2023-07-13T09:52:47;6.32;;;2.60;;
37609;SDS011;23457;51.966;8.230;2023-07-13T09:58:02;7.22;;;2.70;;
37609;SDS011;23457;51.966;8.230;2023-07-13T10:00:38;6.30;;;2.72;;
37609;SDS011;23457;51.966;8.230;2023-07-13T10:05:49;8.23;;;2.70;;
37609;SDS011;23457;51.966;8.230;2023-07-13T10:08:18;7.85;;;2.70;;
37609;SDS011;23457;51.966;8.230;2023-07-13T10:10:51;12.32;;;3.05;;
37609;SDS011;23457;51.966;8.230;2023-07-13T10:13:32;7.65;;;3.28;;
37609;SDS011;23457;51.966;8.230;2023-07-13T10:16:06;6.13;;;3.17;;
37609;SDS011;23457;51.966;8.230;2023-07-13T10:18:44;9.88;;;3.45;;
37609;SDS011;23457;51.966;8.230;2023-07-13T10:21:18;6.93;;;3.33;;
37609;SDS011;23457;51.966;8.230;2023-07-13T10:24:03;7.55;;;3.65;;
37609;SDS011;23457;51.966;8.230;2023-07-13T10:26:36;6.30;;;3.25;;
37609;SDS011;23457;51.966;8.230;2023-07-13T10:29:11;7.55;;;3.35;;
37609;SDS011;23457;51.966;8.230;2023-07-13T10:31:41;9.10;;;3.92;;
37609;SDS011;23457;51.966;8.230;2023-07-13T10:34:09;6.60;;;3.75;;
37609;SDS011;23457;51.966;8.230;2023-07-13T10:39:20;10.15;;;4.10;;
37609;SDS011;23457;51.966;8.230;2023-07-13T10:41:50;8.93;;;4.22;;
37609;SDS011;23457;51.966;8.230;2023-07-13T10:44:23;9.15;;;4.57;;
37609;SDS011;23457;51.966;8.230;2023-07-13T10:46:57;9.82;;;4.40;;
37609;SDS011;23457;51.966;8.230;2023-07-13T10:49:29;12.07;;;4.25;;
37609;SDS011;23457;51.966;8.230;2023-07-13T10:51:58;6.68;;;3.80;;
37609;SDS011;23457;51.966;8.230;2023-07-13T10:54:30;9.02;;;3.65;;
37609;SDS011;23457;51.966;8.230;2023-07-13T10:57:10;7.60;;;3.65;;
37609;SDS011;23457;51.966;8.230;2023-07-13T11:00:26;8.95;;;3.40;;
37609;SDS011;23457;51.966;8.230;2023-07-13T11:02:41;12.25;;;3.60;;
37609;SDS011;23457;51.966;8.230;2023-07-13T11:05:14;8.52;;;3.40;;
37609;SDS011;23457;51.966;8.230;2023-07-13T11:07:54;10.40;;;3.30;;
37609;SDS011;23457;51.966;8.230;2023-07-13T11:11:01;10.88;;;2.88;;
37609;SDS011;23457;51.966;8.230;2023-07-13T11:13:38;11.65;;;2.97;;
37609;SDS011;23457;51.966;8.230;2023-07-13T11:18:52;8.82;;;2.60;;
37609;SDS011;23457;51.966;8.230;2023-07-13T11:21:28;4.78;;;2.50;;
37609;SDS011;23457;51.966;8.230;2023-07-13T11:24:05;10.48;;;2.83;;
37609;SDS011;23457;51.966;8.230;2023-07-13T11:31:53;5.50;;;2.50;;
37609;SDS011;23457;51.966;8.230;2023-07-13T11:34:40;8.18;;;2.85;;
37609;SDS011;23457;51.966;8.230;2023-07-13T11:37:11;10.15;;;2.53;;
37609;SDS011;23457;51.966;8.230;2023-07-13T11:39:41;7.38;;;2.60;;
37609;SDS011;23457;51.966;8.230;2023-07-13T11:42:14;7.32;;;2.60;;
37609;SDS011;23457;51.966;8.230;2023-07-13T11:44:45;6.28;;;2.58;;
37609;SDS011;23457;51.966;8.230;2023-07-13T11:47:33;10.30;;;2.80;;
37609;SDS011;23457;51.966;8.230;2023-07-13T11:50:00;5.28;;;2.30;;
37609;SDS011;23457;51.966;8.230;2023-07-13T11:52:35;8.98;;;2.80;;
37609;SDS011;23457;51.966;8.230;2023-07-13T11:55:04;7.13;;;2.75;;
37609;SDS011;23457;51.966;8.230;2023-07-13T11:57:47;9.30;;;2.80;;
37609;SDS011;23457;51.966;8.230;2023-07-13T12:00:18;7.63;;;2.67;;
37609;SDS011;23457;51.966;8.230;2023-07-13T12:02:49;7.05;;;2.45;;
37609;SDS011;23457;51.966;8.230;2023-07-13T12:05:19;7.30;;;3.22;;
37609;SDS011;23457;51.966;8.230;2023-07-13T12:07:47;7.13;;;2.95;;
37609;SDS011;23457;51.966;8.230;2023-07-13T12:12:52;5.28;;;2.97;;
37609;SDS011;23457;51.966;8.230;2023-07-13T12:15:20;7.07;;;3.00;;
37609;SDS011;23457;51.966;8.230;2023-07-13T12:17:48;6.60;;;3.47;;
37609;SDS011;23457;51.966;8.230;2023-07-13T12:20:21;6.78;;;3.45;;
37609;SDS011;23457;51.966;8.230;2023-07-13T12:22:50;7.07;;;2.97;;
37609;SDS011;23457;51.966;8.230;2023-07-13T12:25:18;7.75;;;2.45;;
37609;SDS011;23457;51.966;8.230;2023-07-13T12:27:47;7.93;;;2.67;;
37609;SDS011;23457;51.966;8.230;2023-07-13T12:30:29;5.93;;;2.90;;
37609;SDS011;23457;51.966;8.230;2023-07-13T12:33:01;8.45;;;3.08;;
37609;SDS011;23457;51.966;8.230;2023-07-13T12:35:39;8.52;;;2.70;;
37609;SDS011;23457;51.966;8.230;2023-07-13T12:38:11;6.07;;;2.40;;
37609;SDS011;23457;51.966;8.230;2023-07-13T12:40:38;5.00;;;1.90;;
37609;SDS011;23457;51.966;8.230;2023-07-13T12:43:13;4.85;;;1.75;;
37609;SDS011;23457;51.966;8.230;2023-07-13T12:45:56;8.38;;;1.70;;
37609;SDS011;23457;51.966;8.230;2023-07-13T12:48:24;6.55;;;1.80;;
37609;SDS011;23457;51.966;8.230;2023-07-13T12:51:11;4.80;;;2.00;;
37609;SDS011;23457;51.966;8.230;2023-07-13T12:53:41;8.85;;;2.00;;
37609;SDS011;23457;51.966;8.230;2023-07-13T12:56:13;7.82;;;2.10;;
37609;SDS011;23457;51.966;8.230;2023-07-13T12:58:45;6.72;;;2.00;;
37609;SDS011;23457;51.966;8.230;2023-07-13T13:01:16;8.80;;;1.98;;
37609;SDS011;23457;51.966;8.230;2023-07-13T13:03:47;8.68;;;2.40;;
37609;SDS011;23457;51.966;8.230;2023-07-13T13:06:21;7.28;;;2.10;;
37609;SDS011;23457;51.966;8.230;2023-07-13T13:08:51;6.43;;;2.25;;
37609;SDS011;23457;51.966;8.230;2023-07-13T13:11:19;6.05;;;2.15;;
37609;SDS011;23457;51.966;8.230;2023-07-13T13:13:49;4.40;;;2.10;;
37609;SDS011;23457;51.966;8.230;2023-07-13T13:18:46;4.03;;;2.17;;
37609;SDS011;23457;51.966;8.230;2023-07-13T13:21:14;4.20;;;2.13;;
37609;SDS011;23457;51.966;8.230;2023-07-13T13:23:42;8.27;;;2.53;;
37609;SDS011;23457;51.966;8.230;2023-07-13T13:26:11;6.95;;;2.17;;
37609;SDS011;23457;51.966;8.230;2023-07-13T13:31:07;11.65;;;3.00;;
37609;SDS011;23457;51.966;8.230;2023-07-13T13:33:40;6.38;;;2.83;;
37609;SDS011;23457;51.966;8.230;2023-07-13T13:36:16;9.27;;;3.55;;
37609;SDS011;23457;51.966;8.230;2023-07-13T13:38:45;6.30;;;2.95;;
37609;SDS011;23457;51.966;8.230;2023-07-13T13:41:13;7.32;;;3.40;;
37609;SDS011;23457;51.966;8.230;2023-07-13T13:43:41;5.90;;;2.83;;
37609;SDS011;23457;51.966;8.230;2023-07-13T13:46:14;5.37;;;2.43;;
37609;SDS011;23457;51.966;8.230;2023-07-13T13:48:51;5.85;;;2.67;;
37609;SDS011;23457;51.966;8.230;2023-07-13T13:51:19;7.72;;;2.45;;
37609;SDS011;23457;51.966;8.230;2023-07-13T13:53:47;7.85;;;2.85;;
37609;SDS011;23457;51.966;8.230;2023-07-13T13:56:14;7.72;;;2.75;;
37609;SDS011;23457;51.966;8.230;2023-07-13T13:58:43;7.43;;;3.00;;
37609;SDS011;23457;51.966;8.230;2023-07-13T14:01:12;8.57;;;3.05;;
37609;SDS011;23457;51.966;8.230;2023-07-13T14:03:40;6.47;;;2.83;;
37609;SDS011;23457;51.966;8.230;2023-07-13T14:06:08;4.63;;;2.50;;
37609;SDS011;23457;51.966;8.230;2023-07-13T14:08:38;7.32;;;3.20;;
37609;SDS011;23457;51.966;8.230;2023-07-13T14:11:05;8.25;;;3.08;;
37609;SDS011;23457;51.966;8.230;2023-07-13T14:13:39;5.65;;;2.90;;
37609;SDS011;23457;51.966;8.230;2023-07-13T14:16:09;5.10;;;3.00;;
37609;SDS011;23457;51.966;8.230;2023-07-13T14:18:39;5.72;;;3.08;;
37609;SDS011;23457;51.966;8.230;2023-07-13T14:21:17;8.10;;;3.58;;
37609;SDS011;23457;51.966;8.230;2023-07-13T14:23:45;9.52;;;3.72;;
37609;SDS011;23457;51.966;8.230;2023-07-13T14:26:14;5.68;;;3.47;;
37609;SDS011;23457;51.966;8.230;2023-07-13T14:28:44;5.30;;;3.20;;
37609;SDS011;23457;51.966;8.230;2023-07-13T14:31:14;11.82;;;3.78;;
37609;SDS011;23457;51.966;8.230;2023-07-13T14:33:42;7.18;;;3.42;;
37609;SDS011;23457;51.966;8.230;2023-07-13T14:38:48;8.20;;;3.08;;
37609;SDS011;23457;51.966;8.230;2023-07-13T14:41:15;5.47;;;2.90;;
37609;SDS011;23457;51.966;8.230;2023-07-13T14:43:42;9.40;;;3.50;;
37609;SDS011;23457;51.966;8.230;2023-07-13T14:46:16;7.75;;;2.75;;
37609;SDS011;23457;51.966;8.230;2023-07-13T14:48:49;7.68;;;3.08;;
37609;SDS011;23457;51.966;8.230;2023-07-13T14:51:16;6.78;;;3.35;;
37609;SDS011;23457;51.966;8.230;2023-07-13T14:53:42;8.70;;;3.30;;
37609;SDS011;23457;51.966;8.230;2023-07-13T14:56:10;3.53;;;2.55;;
37609;SDS011;23457;51.966;8.230;2023-07-13T14:58:38;6.82;;;3.20;;
37609;SDS011;23457;51.966;8.230;2023-07-13T15:01:11;4.30;;;2.58;;
37609;SDS011;23457;51.966;8.230;2023-07-13T15:03:44;4.10;;;2.67;;
37609;SDS011;23457;51.966;8.230;2023-07-13T15:06:14;6.47;;;2.47;;
37609;SDS011;23457;51.966;8.230;2023-07-13T15:08:41;6.15;;;2.60;;
37609;SDS011;23457;51.966;8.230;2023-07-13T15:11:09;7.65;;;2.80;;
37609;SDS011;23457;51.966;8.230;2023-07-13T15:13:39;5.85;;;2.47;;
37609;SDS011;23457;51.966;8.230;2023-07-13T15:19:03;4.93;;;2.60;;
37609;SDS011;23457;51.966;8.230;2023-07-13T15:21:29;6.35;;;2.55;;
37609;SDS011;23457;51.966;8.230;2023-07-13T15:24:00;5.95;;;2.97;;
37609;SDS011;23457;51.966;8.230;2023-07-13T15:26:28;4.05;;;2.63;;
37609;SDS011;23457;51.966;8.230;2023-07-13T15:28:56;3.47;;;2.92;;
37609;SDS011;23457;51.966;8.230;2023-07-13T15:31:23;4.68;;;2.65;;
37609;SDS011;23457;51.966;8.230;2023-07-13T15:33:52;4.68;;;2.95;;
37609;SDS011;23457;51.966;8.230;2023-07-13T15:36:21;8.38;;;2.38;;
37609;SDS011;23457;51.966;8.230;2023-07-13T15:38:48;7.40;;;2.50;;
37609;SDS011;23457;51.966;8.230;2023-07-13T15:41:18;4.25;;;2.58;;
37609;SDS011;23457;51.966;8.230;2023-07-13T15:43:49;6.18;;;2.75;;